Time Latitude Longitude Accuracy (66% radius in meters) Altitude (meters) Speed (km/hour) Bearing (degrees) Battery (%) GPS flag
11:15:35 57.203933 60.118230 0 0 0 0 1 delete
11:15:34 57.203937 60.118221 0 0 0 0 1 delete
11:15:32 57.203966 60.118167 0 0 0 0 1 delete
11:15:27 57.204032 60.118033 0 0 0 0 1 delete
11:15:22 57.204111 60.117932 0 0 0 0 1 delete
11:15:17 57.204189 60.117797 0 0 0 0 1 delete
11:15:12 57.204282 60.117640 0 0 0 0 1 delete
11:15:08 57.204364 60.117559 0 0 0 0 1 delete
11:15:04 57.204452 60.117491 0 0 0 0 1 delete
11:14:59 57.204651 60.117476 0 0 0 0 1 delete
11:14:54 57.204822 60.117530 0 0 0 0 1 delete
11:14:50 57.204942 60.117550 0 0 0 0 1 delete
11:14:49 57.204971 60.117559 0 0 0 0 1 delete
11:14:43 57.205112 60.117559 0 0 0 0 1 delete
11:14:39 57.205159 60.117476 0 0 0 0 1 delete
11:14:34 57.205193 60.117340 0 0 0 0 1 delete
11:14:29 57.205228 60.117278 0 0 0 0 1 delete
11:14:27 57.205267 60.117264 0 0 0 0 1 delete
11:14:24 57.205316 60.117227 0 0 0 0 1 delete
11:14:18 57.205449 60.117143 0 0 0 0 1 delete
11:14:15 57.205560 60.117062 0 0 0 0 1 delete
11:14:11 57.205753 60.116983 0 0 0 0 1 delete
11:14:08 57.205949 60.116964 0 0 0 0 1 delete
11:14:03 57.206212 60.117012 0 0 0 0 1 delete
11:14:02 57.206257 60.117033 0 0 0 0 1 delete
11:13:57 57.206470 60.117129 0 0 0 0 1 delete
11:13:52 57.206594 60.117153 0 0 0 0 1 delete
11:13:47 57.206642 60.117097 0 0 0 0 1 delete
11:13:42 57.206636 60.117030 0 0 0 0 1 delete
11:13:39 57.206623 60.117001 0 0 0 0 1 delete
11:13:33 57.206577 60.116932 0 0 0 0 1 delete
11:13:30 57.206554 60.116911 0 0 0 0 1 delete
11:13:29 57.206543 60.116901 0 0 0 0 1 delete
11:13:24 57.206493 60.116843 0 0 0 0 1 delete
11:13:19 57.206451 60.116806 0 0 0 0 1 delete
11:13:16 57.206436 60.116763 0 0 0 0 1 delete
11:13:12 57.206440 60.116701 0 0 0 0 1 delete
11:13:09 57.206469 60.116656 0 0 0 0 1 delete
11:13:04 57.206476 60.116613 0 0 0 0 1 delete
11:13:00 57.206493 60.116549 0 0 0 0 1 delete
11:12:55 57.206505 60.116502 0 0 0 0 1 delete
11:12:50 57.206525 60.116451 0 0 0 0 1 delete
11:12:45 57.206547 60.116395 0 0 0 0 1 delete
11:12:40 57.206551 60.116319 0 0 0 0 1 delete
11:12:34 57.206583 60.116239 0 0 0 0 1 delete
11:12:27 57.206696 60.116241 0 0 0 0 1 delete
11:12:22 57.206766 60.116258 0 0 0 0 1 delete
11:12:18 57.206778 60.116281 0 0 0 0 1 delete
11:12:14 57.206842 60.116305 0 0 0 0 1 delete
11:12:08 57.206976 60.116397 0 0 0 0 1 delete